sensor_id;sensor_type;location;lat;lon;timestamp;temperature;humidity
39453;DHT22;25154;-33.684;151.102;2022-10-23T00:04:02;19.50;99.90
39453;DHT22;25154;-33.684;151.102;2022-10-23T00:09:06;19.70;99.90
39453;DHT22;25154;-33.684;151.102;2022-10-23T00:14:09;19.80;99.90
39453;DHT22;25154;-33.684;151.102;2022-10-23T00:19:11;20.10;99.90
39453;DHT22;25154;-33.684;151.102;2022-10-23T00:24:14;20.40;99.90
39453;DHT22;25154;-33.684;151.102;2022-10-23T00:29:17;20.80;99.90
39453;DHT22;25154;-33.684;151.102;2022-10-23T00:34:20;21.30;99.90
39453;DHT22;25154;-33.684;151.102;2022-10-23T00:39:22;21.80;99.90
39453;DHT22;25154;-33.684;151.102;2022-10-23T00:49:27;22.20;99.90
39453;DHT22;25154;-33.684;151.102;2022-10-23T00:54:32;22.40;99.90
39453;DHT22;25154;-33.684;151.102;2022-10-23T00:59:35;22.40;99.90
39453;DHT22;25154;-33.684;151.102;2022-10-23T01:04:38;22.70;99.90
39453;DHT22;25154;-33.684;151.102;2022-10-23T01:15:10;23.40;99.90
39453;DHT22;25154;-33.684;151.102;2022-10-23T01:20:31;23.50;99.90
39453;DHT22;25154;-33.684;151.102;2022-10-23T01:26:04;23.60;99.90
39453;DHT22;25154;-33.684;151.102;2022-10-23T01:31:15;23.60;99.90
39453;DHT22;25154;-33.684;151.102;2022-10-23T01:36:20;23.30;99.90
39453;DHT22;25154;-33.684;151.102;2022-10-23T01:46:35;22.70;99.90
39453;DHT22;25154;-33.684;151.102;2022-10-23T01:51:41;22.10;99.90
39453;DHT22;25154;-33.684;151.102;2022-10-23T01:56:47;21.80;99.90
39453;DHT22;25154;-33.684;151.102;2022-10-23T02:01:52;21.80;99.90
39453;DHT22;25154;-33.684;151.102;2022-10-23T02:06:57;22.10;99.90
39453;DHT22;25154;-33.684;151.102;2022-10-23T02:12:02;22.50;99.90
39453;DHT22;25154;-33.684;151.102;2022-10-23T02:17:26;23.20;99.90
39453;DHT22;25154;-33.684;151.102;2022-10-23T02:22:37;24.00;99.90
39453;DHT22;25154;-33.684;151.102;2022-10-23T02:27:53;24.90;99.90
39453;DHT22;25154;-33.684;151.102;2022-10-23T02:32:57;25.30;99.90
39453;DHT22;25154;-33.684;151.102;2022-10-23T02:38:01;25.50;99.90
39453;DHT22;25154;-33.684;151.102;2022-10-23T02:43:16;25.90;99.90
39453;DHT22;25154;-33.684;151.102;2022-10-23T02:48:40;26.30;99.90
39453;DHT22;25154;-33.684;151.102;2022-10-23T02:54:05;26.60;99.90
39453;DHT22;25154;-33.684;151.102;2022-10-23T02:59:26;26.30;99.90
39453;DHT22;25154;-33.684;151.102;2022-10-23T03:04:33;25.50;99.90
39453;DHT22;25154;-33.684;151.102;2022-10-23T03:09:37;24.50;99.90
39453;DHT22;25154;-33.684;151.102;2022-10-23T03:14:39;23.70;99.90
39453;DHT22;25154;-33.684;151.102;2022-10-23T03:19:41;23.20;99.90
39453;DHT22;25154;-33.684;151.102;2022-10-23T03:24:44;22.90;99.90
39453;DHT22;25154;-33.684;151.102;2022-10-23T03:29:46;22.70;99.90
39453;DHT22;25154;-33.684;151.102;2022-10-23T03:34:48;22.40;99.90
39453;DHT22;25154;-33.684;151.102;2022-10-23T03:39:51;22.10;99.90
39453;DHT22;25154;-33.684;151.102;2022-10-23T03:44:53;21.80;99.90
39453;DHT22;25154;-33.684;151.102;2022-10-23T03:49:55;21.50;99.90
39453;DHT22;25154;-33.684;151.102;2022-10-23T03:54:58;21.10;99.90
39453;DHT22;25154;-33.684;151.102;2022-10-23T04:00:00;20.80;99.90
39453;DHT22;25154;-33.684;151.102;2022-10-23T04:05:02;20.60;99.90
39453;DHT22;25154;-33.684;151.102;2022-10-23T04:10:05;20.30;99.90
39453;DHT22;25154;-33.684;151.102;2022-10-23T04:15:08;20.10;99.90
39453;DHT22;25154;-33.684;151.102;2022-10-23T04:20:11;20.00;99.90
39453;DHT22;25154;-33.684;151.102;2022-10-23T04:25:13;20.00;99.90
39453;DHT22;25154;-33.684;151.102;2022-10-23T04:30:17;20.00;99.90
39453;DHT22;25154;-33.684;151.102;2022-10-23T04:35:19;19.90;99.90
39453;DHT22;25154;-33.684;151.102;2022-10-23T04:40:21;19.90;99.90
39453;DHT22;25154;-33.684;151.102;2022-10-23T04:45:24;19.80;99.90
39453;DHT22;25154;-33.684;151.102;2022-10-23T04:50:26;19.80;99.90
39453;DHT22;25154;-33.684;151.102;2022-10-23T04:55:28;19.60;99.90
39453;DHT22;25154;-33.684;151.102;2022-10-23T05:00:31;19.50;99.90
39453;DHT22;25154;-33.684;151.102;2022-10-23T05:05:33;19.40;99.90
39453;DHT22;25154;-33.684;151.102;2022-10-23T05:10:35;19.20;99.90
39453;DHT22;25154;-33.684;151.102;2022-10-23T05:15:38;19.20;99.90
39453;DHT22;25154;-33.684;151.102;2022-10-23T05:20:40;19.10;99.90
39453;DHT22;25154;-33.684;151.102;2022-10-23T05:25:43;19.20;99.90
39453;DHT22;25154;-33.684;151.102;2022-10-23T05:30:46;19.30;99.90
39453;DHT22;25154;-33.684;151.102;2022-10-23T05:35:49;19.50;99.90
39453;DHT22;25154;-33.684;151.102;2022-10-23T05:40:51;19.70;99.90
39453;DHT22;25154;-33.684;151.102;2022-10-23T05:45:54;19.90;99.90
39453;DHT22;25154;-33.684;151.102;2022-10-23T05:51:04;20.00;99.90
39453;DHT22;25154;-33.684;151.102;2022-10-23T05:56:07;19.90;99.90
39453;DHT22;25154;-33.684;151.102;2022-10-23T06:01:12;19.80;99.90
39453;DHT22;25154;-33.684;151.102;2022-10-23T06:06:14;19.80;99.90
39453;DHT22;25154;-33.684;151.102;2022-10-23T06:11:17;19.70;99.90
39453;DHT22;25154;-33.684;151.102;2022-10-23T06:16:22;19.70;99.90
39453;DHT22;25154;-33.684;151.102;2022-10-23T06:21:27;19.70;99.90
39453;DHT22;25154;-33.684;151.102;2022-10-23T06:26:32;19.80;99.90
39453;DHT22;25154;-33.684;151.102;2022-10-23T06:31:41;19.70;99.90
39453;DHT22;25154;-33.684;151.102;2022-10-23T06:36:48;19.70;99.90
39453;DHT22;25154;-33.684;151.102;2022-10-23T06:42:13;19.70;99.90
39453;DHT22;25154;-33.684;151.102;2022-10-23T06:47:55;20.10;99.90
39453;DHT22;25154;-33.684;151.102;2022-10-23T06:52:58;18.80;99.90
39453;DHT22;25154;-33.684;151.102;2022-10-23T06:58:00;19.70;99.90
39453;DHT22;25154;-33.684;151.102;2022-10-23T07:03:03;19.50;99.90
39453;DHT22;25154;-33.684;151.102;2022-10-23T07:08:05;19.50;99.90
39453;DHT22;25154;-33.684;151.102;2022-10-23T07:13:16;19.40;99.90
39453;DHT22;25154;-33.684;151.102;2022-10-23T07:18:19;19.30;99.90
39453;DHT22;25154;-33.684;151.102;2022-10-23T07:23:21;19.20;99.90
39453;DHT22;25154;-33.684;151.102;2022-10-23T07:28:25;19.20;99.90
39453;DHT22;25154;-33.684;151.102;2022-10-23T07:33:28;19.10;99.90
39453;DHT22;25154;-33.684;151.102;2022-10-23T07:38:30;19.00;99.90
39453;DHT22;25154;-33.684;151.102;2022-10-23T07:43:33;19.00;99.90
39453;DHT22;25154;-33.684;151.102;2022-10-23T07:48:39;18.90;99.90
39453;DHT22;25154;-33.684;151.102;2022-10-23T07:53:42;18.90;99.90
39453;DHT22;25154;-33.684;151.102;2022-10-23T07:58:45;18.80;99.90
39453;DHT22;25154;-33.684;151.102;2022-10-23T08:03:47;18.70;99.90
39453;DHT22;25154;-33.684;151.102;2022-10-23T08:08:50;18.60;99.90
39453;DHT22;25154;-33.684;151.102;2022-10-23T08:13:54;18.50;99.90
39453;DHT22;25154;-33.684;151.102;2022-10-23T08:18:56;18.40;99.90
39453;DHT22;25154;-33.684;151.102;2022-10-23T08:24:00;18.30;99.90
39453;DHT22;25154;-33.684;151.102;2022-10-23T08:29:02;18.20;99.90
39453;DHT22;25154;-33.684;151.102;2022-10-23T08:34:05;18.20;99.90
39453;DHT22;25154;-33.684;151.102;2022-10-23T08:39:07;18.20;99.90
39453;DHT22;25154;-33.684;151.102;2022-10-23T08:44:36;18.30;99.90
39453;DHT22;25154;-33.684;151.102;2022-10-23T08:55:15;18.30;99.90
39453;DHT22;25154;-33.684;151.102;2022-10-23T09:00:19;18.30;99.90
39453;DHT22;25154;-33.684;151.102;2022-10-23T09:05:26;18.30;99.90
39453;DHT22;25154;-33.684;151.102;2022-10-23T09:15:46;18.30;99.90
39453;DHT22;25154;-33.684;151.102;2022-10-23T09:20:51;18.30;99.90
39453;DHT22;25154;-33.684;151.102;2022-10-23T09:25:54;18.30;99.90
39453;DHT22;25154;-33.684;151.102;2022-10-23T09:31:09;18.30;99.90
39453;DHT22;25154;-33.684;151.102;2022-10-23T09:46:44;18.10;99.90
39453;DHT22;25154;-33.684;151.102;2022-10-23T09:51:59;18.10;99.90
39453;DHT22;25154;-33.684;151.102;2022-10-23T10:07:30;17.90;99.90
39453;DHT22;25154;-33.684;151.102;2022-10-23T10:12:38;17.80;99.90
39453;DHT22;25154;-33.684;151.102;2022-10-23T10:18:12;17.90;99.90
39453;DHT22;25154;-33.684;151.102;2022-10-23T10:23:33;17.90;99.90
39453;DHT22;25154;-33.684;151.102;2022-10-23T10:28:51;17.90;99.90
39453;DHT22;25154;-33.684;151.102;2022-10-23T10:34:19;17.90;99.90
39453;DHT22;25154;-33.684;151.102;2022-10-23T10:39:47;17.70;99.90
39453;DHT22;25154;-33.684;151.102;2022-10-23T10:55:37;17.90;99.90
39453;DHT22;25154;-33.684;151.102;2022-10-23T11:00:40;17.90;99.90
39453;DHT22;25154;-33.684;151.102;2022-10-23T11:05:44;17.80;99.90
39453;DHT22;25154;-33.684;151.102;2022-10-23T11:10:51;17.70;99.90
39453;DHT22;25154;-33.684;151.102;2022-10-23T11:15:59;17.70;99.90
39453;DHT22;25154;-33.684;151.102;2022-10-23T11:26:38;17.60;99.90
39453;DHT22;25154;-33.684;151.102;2022-10-23T11:37:31;17.60;99.90
39453;DHT22;25154;-33.684;151.102;2022-10-23T11:42:46;17.50;99.90
39453;DHT22;25154;-33.684;151.102;2022-10-23T11:47:57;17.50;99.90
39453;DHT22;25154;-33.684;151.102;2022-10-23T11:53:05;17.50;99.90
39453;DHT22;25154;-33.684;151.102;2022-10-23T11:58:20;17.60;99.90
39453;DHT22;25154;-33.684;151.102;2022-10-23T12:08:55;17.60;99.90
39453;DHT22;25154;-33.684;151.102;2022-10-23T12:14:00;21.80;99.90
39453;DHT22;25154;-33.684;151.102;2022-10-23T12:19:18;17.40;99.90
39453;DHT22;25154;-33.684;151.102;2022-10-23T12:24:39;17.30;99.90
39453;DHT22;25154;-33.684;151.102;2022-10-23T12:40:20;18.50;99.90
39453;DHT22;25154;-33.684;151.102;2022-10-23T12:45:35;17.30;99.90
39453;DHT22;25154;-33.684;151.102;2022-10-23T12:50:38;17.20;99.90
39453;DHT22;25154;-33.684;151.102;2022-10-23T12:55:51;17.30;99.90
39453;DHT22;25154;-33.684;151.102;2022-10-23T13:00:57;17.30;99.90
39453;DHT22;25154;-33.684;151.102;2022-10-23T13:06:01;17.30;99.90
39453;DHT22;25154;-33.684;151.102;2022-10-23T13:11:04;17.10;99.90
39453;DHT22;25154;-33.684;151.102;2022-10-23T13:16:22;17.00;99.90
39453;DHT22;25154;-33.684;151.102;2022-10-23T13:21:26;16.90;99.90
39453;DHT22;25154;-33.684;151.102;2022-10-23T13:26:40;16.90;99.90
39453;DHT22;25154;-33.684;151.102;2022-10-23T13:31:49;16.90;99.90
39453;DHT22;25154;-33.684;151.102;2022-10-23T13:37:01;16.80;99.90
39453;DHT22;25154;-33.684;151.102;2022-10-23T13:42:21;16.80;99.90
39453;DHT22;25154;-33.684;151.102;2022-10-23T13:47:23;16.80;99.90
39453;DHT22;25154;-33.684;151.102;2022-10-23T13:52:26;16.80;99.90
39453;DHT22;25154;-33.684;151.102;2022-10-23T13:57:28;16.80;99.90
39453;DHT22;25154;-33.684;151.102;2022-10-23T14:02:30;16.80;99.90
39453;DHT22;25154;-33.684;151.102;2022-10-23T14:07:32;16.90;99.90
39453;DHT22;25154;-33.684;151.102;2022-10-23T14:12:41;16.90;99.90
39453;DHT22;25154;-33.684;151.102;2022-10-23T14:17:44;16.90;99.90
39453;DHT22;25154;-33.684;151.102;2022-10-23T14:22:46;16.90;99.90
39453;DHT22;25154;-33.684;151.102;2022-10-23T14:27:49;16.90;99.90
39453;DHT22;25154;-33.684;151.102;2022-10-23T14:32:52;16.90;99.90
39453;DHT22;25154;-33.684;151.102;2022-10-23T14:37:54;17.00;99.90
39453;DHT22;25154;-33.684;151.102;2022-10-23T14:42:58;17.00;99.90
39453;DHT22;25154;-33.684;151.102;2022-10-23T14:48:00;17.00;99.90
39453;DHT22;25154;-33.684;151.102;2022-10-23T14:53:03;16.80;99.90
39453;DHT22;25154;-33.684;151.102;2022-10-23T14:58:06;16.70;99.90
39453;DHT22;25154;-33.684;151.102;2022-10-23T15:03:08;16.60;99.90
39453;DHT22;25154;-33.684;151.102;2022-10-23T15:08:11;16.60;99.90
39453;DHT22;25154;-33.684;151.102;2022-10-23T15:13:13;16.60;99.90
39453;DHT22;25154;-33.684;151.102;2022-10-23T15:23:26;16.50;99.90
39453;DHT22;25154;-33.684;151.102;2022-10-23T15:28:29;16.40;99.90
39453;DHT22;25154;-33.684;151.102;2022-10-23T15:33:32;16.40;99.90
39453;DHT22;25154;-33.684;151.102;2022-10-23T15:38:34;16.40;99.90
39453;DHT22;25154;-33.684;151.102;2022-10-23T15:43:36;16.40;99.90
39453;DHT22;25154;-33.684;151.102;2022-10-23T15:48:38;16.40;99.90
39453;DHT22;25154;-33.684;151.102;2022-10-23T15:53:41;16.40;99.90
39453;DHT22;25154;-33.684;151.102;2022-10-23T15:58:43;16.40;99.90
39453;DHT22;25154;-33.684;151.102;2022-10-23T16:03:46;16.50;99.90
39453;DHT22;25154;-33.684;151.102;2022-10-23T16:08:48;16.40;99.90
39453;DHT22;25154;-33.684;151.102;2022-10-23T16:13:51;16.40;99.90
39453;DHT22;25154;-33.684;151.102;2022-10-23T16:18:57;16.40;99.90
39453;DHT22;25154;-33.684;151.102;2022-10-23T16:24:01;16.30;99.90
39453;DHT22;25154;-33.684;151.102;2022-10-23T16:29:06;16.30;99.90
39453;DHT22;25154;-33.684;151.102;2022-10-23T16:34:09;16.30;99.90
39453;DHT22;25154;-33.684;151.102;2022-10-23T16:39:13;16.30;99.90
39453;DHT22;25154;-33.684;151.102;2022-10-23T16:44:17;16.30;99.90
39453;DHT22;25154;-33.684;151.102;2022-10-23T16:49:20;16.30;99.90
39453;DHT22;25154;-33.684;151.102;2022-10-23T16:54:22;16.30;99.90
39453;DHT22;25154;-33.684;151.102;2022-10-23T16:59:24;17.30;99.90
39453;DHT22;25154;-33.684;151.102;2022-10-23T17:04:28;16.30;99.90
39453;DHT22;25154;-33.684;151.102;2022-10-23T17:09:31;16.20;99.90
39453;DHT22;25154;-33.684;151.102;2022-10-23T17:14:33;16.20;99.90
39453;DHT22;25154;-33.684;151.102;2022-10-23T17:19:36;16.20;99.90
39453;DHT22;25154;-33.684;151.102;2022-10-23T17:24:42;16.20;99.90
39453;DHT22;25154;-33.684;151.102;2022-10-23T17:29:44;16.20;99.90
39453;DHT22;25154;-33.684;151.102;2022-10-23T17:34:47;16.20;99.90
39453;DHT22;25154;-33.684;151.102;2022-10-23T17:39:49;16.20;99.90
39453;DHT22;25154;-33.684;151.102;2022-10-23T17:44:51;16.20;99.90
39453;DHT22;25154;-33.684;151.102;2022-10-23T17:49:53;16.10;99.90
39453;DHT22;25154;-33.684;151.102;2022-10-23T17:54:56;16.10;99.90
39453;DHT22;25154;-33.684;151.102;2022-10-23T17:59:58;16.00;99.90
39453;DHT22;25154;-33.684;151.102;2022-10-23T18:05:02;16.00;99.90
39453;DHT22;25154;-33.684;151.102;2022-10-23T18:10:05;16.10;99.90
39453;DHT22;25154;-33.684;151.102;2022-10-23T18:15:08;16.10;99.90
39453;DHT22;25154;-33.684;151.102;2022-10-23T18:20:11;16.20;99.90
39453;DHT22;25154;-33.684;151.102;2022-10-23T18:25:15;16.20;99.90
39453;DHT22;25154;-33.684;151.102;2022-10-23T18:30:18;16.20;99.90
39453;DHT22;25154;-33.684;151.102;2022-10-23T18:35:21;16.20;99.90
39453;DHT22;25154;-33.684;151.102;2022-10-23T18:40:23;16.30;99.90
39453;DHT22;25154;-33.684;151.102;2022-10-23T18:45:26;16.30;99.90
39453;DHT22;25154;-33.684;151.102;2022-10-23T18:50:33;16.30;99.90
39453;DHT22;25154;-33.684;151.102;2022-10-23T18:55:35;16.30;99.90
39453;DHT22;25154;-33.684;151.102;2022-10-23T19:00:40;16.30;99.90
39453;DHT22;25154;-33.684;151.102;2022-10-23T19:05:44;16.30;99.90
39453;DHT22;25154;-33.684;151.102;2022-10-23T19:10:49;16.30;99.90
39453;DHT22;25154;-33.684;151.102;2022-10-23T19:15:52;16.30;99.90
39453;DHT22;25154;-33.684;151.102;2022-10-23T19:20:55;16.30;99.90
39453;DHT22;25154;-33.684;151.102;2022-10-23T19:25:58;16.30;99.90
39453;DHT22;25154;-33.684;151.102;2022-10-23T19:31:03;16.20;99.90
39453;DHT22;25154;-33.684;151.102;2022-10-23T19:36:07;16.10;99.90
39453;DHT22;25154;-33.684;151.102;2022-10-23T19:41:09;16.10;99.90
39453;DHT22;25154;-33.684;151.102;2022-10-23T19:46:12;16.20;99.90
39453;DHT22;25154;-33.684;151.102;2022-10-23T19:51:15;16.30;99.90
39453;DHT22;25154;-33.684;151.102;2022-10-23T19:56:17;16.30;99.90
39453;DHT22;25154;-33.684;151.102;2022-10-23T20:01:22;16.40;99.90
39453;DHT22;25154;-33.684;151.102;2022-10-23T20:06:28;16.50;99.90
39453;DHT22;25154;-33.684;151.102;2022-10-23T20:11:31;16.60;99.90
39453;DHT22;25154;-33.684;151.102;2022-10-23T20:16:37;16.60;99.90
39453;DHT22;25154;-33.684;151.102;2022-10-23T20:21:43;16.60;99.90
39453;DHT22;25154;-33.684;151.102;2022-10-23T20:26:49;16.70;99.90
39453;DHT22;25154;-33.684;151.102;2022-10-23T20:31:51;16.70;99.90
39453;DHT22;25154;-33.684;151.102;2022-10-23T20:36:54;16.80;99.90
39453;DHT22;25154;-33.684;151.102;2022-10-23T20:41:57;16.80;99.90
39453;DHT22;25154;-33.684;151.102;2022-10-23T20:47:03;16.90;99.90
39453;DHT22;25154;-33.684;151.102;2022-10-23T20:52:07;17.00;99.90
39453;DHT22;25154;-33.684;151.102;2022-10-23T20:57:10;17.00;99.90
39453;DHT22;25154;-33.684;151.102;2022-10-23T21:02:13;17.10;99.90
39453;DHT22;25154;-33.684;151.102;2022-10-23T21:07:17;17.10;99.90
39453;DHT22;25154;-33.684;151.102;2022-10-23T21:12:19;17.10;99.90
39453;DHT22;25154;-33.684;151.102;2022-10-23T21:17:22;17.10;99.90
39453;DHT22;25154;-33.684;151.102;2022-10-23T21:22:25;17.10;99.90
39453;DHT22;25154;-33.684;151.102;2022-10-23T21:27:27;17.20;99.90
39453;DHT22;25154;-33.684;151.102;2022-10-23T21:32:30;17.20;99.90
39453;DHT22;25154;-33.684;151.102;2022-10-23T21:37:33;17.30;99.90
39453;DHT22;25154;-33.684;151.102;2022-10-23T21:42:35;17.50;99.90
39453;DHT22;25154;-33.684;151.102;2022-10-23T21:47:38;17.70;99.90
39453;DHT22;25154;-33.684;151.102;2022-10-23T21:52:41;17.90;99.90
39453;DHT22;25154;-33.684;151.102;2022-10-23T21:57:45;17.90;99.90
39453;DHT22;25154;-33.684;151.102;2022-10-23T22:02:48;17.80;99.90
39453;DHT22;25154;-33.684;151.102;2022-10-23T22:07:50;17.70;99.90
39453;DHT22;25154;-33.684;151.102;2022-10-23T22:12:53;18.20;99.90
39453;DHT22;25154;-33.684;151.102;2022-10-23T22:17:56;18.20;99.90
39453;DHT22;25154;-33.684;151.102;2022-10-23T22:23:00;18.00;99.90
39453;DHT22;25154;-33.684;151.102;2022-10-23T22:28:03;18.00;99.90
39453;DHT22;25154;-33.684;151.102;2022-10-23T22:33:06;18.00;99.90
39453;DHT22;25154;-33.684;151.102;2022-10-23T22:38:08;18.10;99.90
39453;DHT22;25154;-33.684;151.102;2022-10-23T22:43:11;18.00;99.90
39453;DHT22;25154;-33.684;151.102;2022-10-23T22:48:14;18.00;99.90
39453;DHT22;25154;-33.684;151.102;2022-10-23T22:53:16;18.00;99.90
39453;DHT22;25154;-33.684;151.102;2022-10-23T22:58:19;18.00;99.90
39453;DHT22;25154;-33.684;151.102;2022-10-23T23:03:22;18.10;99.90
39453;DHT22;25154;-33.684;151.102;2022-10-23T23:08:26;18.20;99.90
39453;DHT22;25154;-33.684;151.102;2022-10-23T23:13:29;18.20;99.90
39453;DHT22;25154;-33.684;151.102;2022-10-23T23:18:32;18.40;99.90
39453;DHT22;25154;-33.684;151.102;2022-10-23T23:23:38;18.50;99.90
39453;DHT22;25154;-33.684;151.102;2022-10-23T23:28:41;18.70;99.90
39453;DHT22;25154;-33.684;151.102;2022-10-23T23:33:43;18.60;99.90
39453;DHT22;25154;-33.684;151.102;2022-10-23T23:38:46;18.60;99.90
39453;DHT22;25154;-33.684;151.102;2022-10-23T23:43:49;18.40;99.90
39453;DHT22;25154;-33.684;151.102;2022-10-23T23:48:51;18.40;99.90
39453;DHT22;25154;-33.684;151.102;2022-10-23T23:53:54;18.50;99.90
39453;DHT22;25154;-33.684;151.102;2022-10-23T23:58:57;18.50;99.90
